createdAt,value
2023-06-15T00:00:25.447Z,1800.00
2023-06-15T00:01:25.458Z,1813.00
2023-06-15T00:02:25.517Z,1798.00
2023-06-15T00:03:25.648Z,1793.00
2023-06-15T00:04:25.521Z,1794.00
2023-06-15T00:05:25.519Z,1796.00
2023-06-15T00:06:25.528Z,1792.00
2023-06-15T00:07:25.535Z,1809.00
2023-06-15T00:08:25.554Z,1795.00
2023-06-15T00:09:25.573Z,1781.00
2023-06-15T00:10:25.594Z,1774.00
2023-06-15T00:11:25.618Z,1786.00
2023-06-15T00:12:25.631Z,1790.00
2023-06-15T00:13:25.652Z,1791.00
2023-06-15T00:14:25.682Z,1775.00
2023-06-15T00:15:25.670Z,1769.00
2023-06-15T00:16:25.854Z,1784.00
2023-06-15T00:17:25.765Z,1775.00
2023-06-15T00:18:25.746Z,1769.00
2023-06-15T00:19:25.741Z,1777.00
2023-06-15T00:20:25.756Z,1761.00
2023-06-15T00:21:25.769Z,1763.00
2023-06-15T00:22:25.777Z,1782.00
2023-06-15T00:23:25.792Z,1762.00
2023-06-15T00:24:25.824Z,1775.00
2023-06-15T00:25:25.812Z,1747.00
2023-06-15T00:26:25.827Z,1753.00
2023-06-15T00:27:25.845Z,1743.00
2023-06-15T00:28:25.853Z,1750.00
2023-06-15T00:29:25.884Z,1760.00
2023-06-15T00:30:25.882Z,1746.00
2023-06-15T00:31:25.892Z,1742.00
2023-06-15T00:32:25.950Z,1752.00
2023-06-15T00:33:25.975Z,1741.00
2023-06-15T00:34:25.933Z,1747.00
2023-06-15T00:35:25.947Z,1748.00
2023-06-15T00:36:25.952Z,1749.00
2023-06-15T00:37:25.973Z,1737.00
2023-06-15T00:38:26.060Z,1729.00
2023-06-15T00:39:26.004Z,1738.00
2023-06-15T00:40:26.021Z,1723.00
2023-06-15T00:41:26.021Z,1739.00
2023-06-15T00:42:26.039Z,1736.00
2023-06-15T00:43:26.057Z,1722.00
2023-06-15T00:44:26.069Z,1722.00
2023-06-15T00:45:26.088Z,1723.00
2023-06-15T00:46:26.124Z,1722.00
2023-06-15T00:47:26.138Z,1711.00
2023-06-15T00:48:26.122Z,1727.00
2023-06-15T00:49:26.129Z,1711.00
2023-06-15T00:50:26.167Z,1733.00
2023-06-15T00:51:26.161Z,1717.00
2023-06-15T00:52:26.186Z,1699.00
2023-06-15T00:53:26.186Z,1711.00
2023-06-15T00:54:26.212Z,1700.00
2023-06-15T00:55:26.214Z,1706.00
2023-06-15T00:56:26.227Z,1725.00
2023-06-15T00:57:26.243Z,1686.00
2023-06-15T00:58:26.262Z,1692.00
2023-06-15T00:59:26.268Z,1700.00
2023-06-15T01:00:26.280Z,1704.00
2023-06-15T01:01:26.364Z,1690.00
2023-06-15T01:02:26.302Z,1705.00
2023-06-15T01:03:26.358Z,1694.00
2023-06-15T01:04:26.342Z,1687.00
2023-06-15T01:05:26.344Z,1687.00
2023-06-15T01:06:26.359Z,1698.00
2023-06-15T01:07:26.373Z,1670.00
2023-06-15T01:08:26.403Z,1692.00
2023-06-15T01:09:26.429Z,1689.00
2023-06-15T01:10:26.424Z,1694.00
2023-06-15T01:11:28.026Z,1669.00
2023-06-15T01:12:26.394Z,1676.00
2023-06-15T01:13:26.375Z,1669.00
2023-06-15T01:14:26.372Z,1677.00
2023-06-15T01:15:26.360Z,1654.00
2023-06-15T01:16:26.347Z,1668.00
2023-06-15T01:17:26.300Z,1670.00
2023-06-15T01:18:26.263Z,1667.00
2023-06-15T01:19:26.214Z,1659.00
2023-06-15T01:20:26.192Z,1675.00
2023-06-15T01:21:26.194Z,1674.00
2023-06-15T01:22:26.179Z,1674.00
2023-06-15T01:23:26.173Z,1663.00
2023-06-15T01:24:26.143Z,1650.00
2023-06-15T01:25:26.076Z,1647.00
2023-06-15T01:26:26.025Z,1665.00
2023-06-15T01:27:26.002Z,1653.00
2023-06-15T01:28:25.996Z,1633.00
2023-06-15T01:29:25.959Z,1640.00
2023-06-15T01:30:25.929Z,1661.00
2023-06-15T01:31:26.005Z,1642.00
2023-06-15T01:32:25.904Z,1628.00
2023-06-15T01:33:25.861Z,1626.00
2023-06-15T01:34:25.866Z,1642.00
2023-06-15T01:35:25.809Z,1635.00
2023-06-15T01:36:25.779Z,1636.00
2023-06-15T01:37:25.764Z,1634.00
2023-06-15T01:38:25.725Z,1624.00
2023-06-15T01:39:25.695Z,1627.00
2023-06-15T01:40:25.672Z,1621.00
2023-06-15T01:41:25.741Z,1627.00
2023-06-15T01:42:25.624Z,1620.00
2023-06-15T01:43:25.627Z,1616.00
2023-06-15T01:44:25.575Z,1632.00
2023-06-15T01:45:25.554Z,1615.00
2023-06-15T01:46:25.546Z,1625.00
2023-06-15T01:47:25.537Z,1618.00
2023-06-15T01:48:25.469Z,1615.00
2023-06-15T01:49:25.446Z,1596.00
2023-06-15T01:50:25.415Z,1613.00
2023-06-15T01:51:25.385Z,1607.00
2023-06-15T01:52:25.360Z,1614.00
2023-06-15T01:53:25.340Z,1590.00
2023-06-15T01:54:25.306Z,1612.00
2023-06-15T01:55:25.305Z,1600.00
2023-06-15T01:56:25.270Z,1595.00
2023-06-15T01:57:31.946Z,1623.00
2023-06-15T01:58:26.227Z,1623.00
2023-06-15T01:59:25.188Z,1605.00
2023-06-15T02:00:25.177Z,1600.00
2023-06-15T02:01:25.175Z,1590.00
2023-06-15T02:02:25.142Z,1603.00
2023-06-15T02:03:25.085Z,1597.00
2023-06-15T02:04:25.059Z,1599.00
2023-06-15T02:05:25.034Z,1593.00
2023-06-15T02:06:24.997Z,1586.00
2023-06-15T02:07:24.981Z,1584.00
2023-06-15T02:08:24.957Z,1582.00
2023-06-15T02:09:24.927Z,1582.00
2023-06-15T02:10:24.907Z,1578.00
2023-06-15T02:11:24.884Z,1564.00
2023-06-15T02:12:24.873Z,1572.00
2023-06-15T02:13:24.876Z,1589.00
2023-06-15T02:14:24.892Z,1563.00
2023-06-15T02:15:24.909Z,1570.00
2023-06-15T02:16:24.926Z,1558.00
2023-06-15T02:17:24.950Z,1569.00
2023-06-15T02:18:24.981Z,1573.00
2023-06-15T02:19:25.041Z,1558.00
2023-06-15T02:20:25.018Z,1577.00
2023-06-15T02:21:25.021Z,1555.00
2023-06-15T02:22:25.044Z,1560.00
2023-06-15T02:23:25.055Z,1549.00
2023-06-15T02:24:25.171Z,1559.00
2023-06-15T02:25:25.146Z,1552.00
2023-06-15T02:26:25.111Z,1541.00
2023-06-15T02:27:25.128Z,1537.00
2023-06-15T02:28:25.144Z,1549.00
2023-06-15T02:29:25.151Z,1550.00
2023-06-15T02:30:25.187Z,1554.00
2023-06-15T02:31:25.199Z,1552.00
2023-06-15T02:32:25.238Z,1540.00
2023-06-15T02:33:25.233Z,1543.00
2023-06-15T02:34:25.303Z,1533.00
2023-06-15T02:35:25.266Z,1534.00
2023-06-15T02:36:25.289Z,1539.00
2023-06-15T02:37:25.301Z,1531.00
2023-06-15T02:38:25.327Z,1536.00
2023-06-15T02:39:25.340Z,1542.00
2023-06-15T02:40:25.355Z,1532.00
2023-06-15T02:41:25.368Z,1518.00
2023-06-15T02:42:25.393Z,1520.00
2023-06-15T02:43:25.419Z,1511.00
2023-06-15T02:44:25.445Z,1512.00
2023-06-15T02:45:25.450Z,1535.00
2023-06-15T02:46:25.474Z,1515.00
2023-06-15T02:47:25.538Z,1512.00
2023-06-15T02:48:25.514Z,1532.00
2023-06-15T02:49:25.536Z,1519.00
2023-06-15T02:50:25.597Z,1518.00
2023-06-15T02:51:25.566Z,1516.00
2023-06-15T02:52:25.593Z,1515.00
2023-06-15T02:53:25.643Z,1526.00
2023-06-15T02:54:25.637Z,1510.00
2023-06-15T02:55:25.660Z,1508.00
2023-06-15T02:56:25.676Z,1509.00
2023-06-15T02:57:25.703Z,1494.00
2023-06-15T02:58:25.741Z,1494.00
2023-06-15T02:59:25.755Z,1507.00
2023-06-15T03:00:25.762Z,1489.00
2023-06-15T03:01:25.790Z,1511.00
2023-06-15T03:02:25.810Z,1499.00
2023-06-15T03:03:25.805Z,1506.00
2023-06-15T03:04:25.826Z,1476.00
2023-06-15T03:05:25.843Z,1482.00
2023-06-15T03:06:25.906Z,1494.00
2023-06-15T03:07:25.879Z,1491.00
2023-06-15T03:08:25.899Z,1482.00
2023-06-15T03:09:25.925Z,1482.00
2023-06-15T03:10:25.937Z,1494.00
2023-06-15T03:11:25.979Z,1473.00
2023-06-15T03:12:25.972Z,1487.00
2023-06-15T03:13:25.987Z,1476.00
2023-06-15T03:14:26.010Z,1476.00
2023-06-15T03:15:26.030Z,1476.00
2023-06-15T03:16:26.111Z,1489.00
2023-06-15T03:17:26.183Z,1466.00
2023-06-15T03:18:26.093Z,1469.00
2023-06-15T03:19:26.119Z,1465.00
2023-06-15T03:20:26.242Z,1480.00
2023-06-15T03:21:26.184Z,1486.00
2023-06-15T03:22:26.167Z,1455.00
2023-06-15T03:23:26.199Z,1455.00
2023-06-15T03:24:26.323Z,1450.00
2023-06-15T03:25:26.232Z,1459.00
2023-06-15T03:26:26.241Z,1475.00
2023-06-15T03:27:26.267Z,1450.00
2023-06-15T03:28:26.285Z,1444.00
2023-06-15T03:29:26.298Z,1445.00
2023-06-15T03:30:26.313Z,1465.00
2023-06-15T03:31:26.335Z,1469.00
2023-06-15T03:32:26.404Z,1456.00
2023-06-15T03:33:26.388Z,1462.00
2023-06-15T03:34:26.401Z,1457.00
2023-06-15T03:35:26.416Z,1450.00
2023-06-15T03:36:26.435Z,1455.00
2023-06-15T03:37:26.451Z,1437.00
2023-06-15T03:38:26.471Z,1439.00
2023-06-15T03:39:26.515Z,1436.00
2023-06-15T03:40:26.520Z,1441.00
2023-06-15T03:41:26.546Z,1446.00
2023-06-15T03:42:26.560Z,1427.00
2023-06-15T03:43:26.580Z,1433.00
2023-06-15T03:44:26.640Z,1436.00
2023-06-15T03:45:26.617Z,1451.00
2023-06-15T03:46:26.657Z,1446.00
2023-06-15T03:47:26.691Z,1441.00
2023-06-15T03:48:26.685Z,1426.00
2023-06-15T03:49:26.710Z,1433.00
2023-06-15T03:50:26.738Z,1427.00
2023-06-15T03:51:26.760Z,1430.00
2023-06-15T03:52:26.788Z,1410.00
2023-06-15T03:53:26.794Z,1430.00
2023-06-15T03:54:26.866Z,1431.00
2023-06-15T03:55:26.846Z,1418.00
2023-06-15T03:56:26.891Z,1413.00
2023-06-15T03:57:26.893Z,1412.00
2023-06-15T03:58:26.909Z,1412.00
2023-06-15T03:59:26.930Z,1423.00
2023-06-15T04:00:26.954Z,1405.00
2023-06-15T04:01:27.000Z,1404.00
2023-06-15T04:02:27.063Z,1403.00
2023-06-15T04:03:27.080Z,1404.00
2023-06-15T04:04:27.080Z,1414.00
2023-06-15T04:05:27.081Z,1421.00
2023-06-15T04:06:27.082Z,1397.00
2023-06-15T04:07:27.109Z,1395.00
2023-06-15T04:08:27.134Z,1382.00
2023-06-15T04:09:27.193Z,1405.00
2023-06-15T04:10:27.254Z,1388.00
2023-06-15T04:11:27.225Z,1408.00
2023-06-15T04:12:27.227Z,1407.00
2023-06-15T04:13:27.280Z,1406.00
2023-06-15T04:14:27.293Z,1393.00
2023-06-15T04:15:27.300Z,1382.00
2023-06-15T04:16:27.311Z,1407.00
2023-06-15T04:17:27.372Z,1375.00
2023-06-15T04:18:27.459Z,1394.00
2023-06-15T04:19:27.395Z,1380.00
2023-06-15T04:20:27.404Z,1395.00
2023-06-15T04:21:27.439Z,1396.00
2023-06-15T04:22:27.448Z,1378.00
2023-06-15T04:23:27.483Z,1383.00
2023-06-15T04:24:27.552Z,1372.00
2023-06-15T04:25:27.533Z,1388.00
2023-06-15T04:26:27.579Z,1374.00
2023-06-15T04:27:27.586Z,1381.00
2023-06-15T04:28:27.635Z,1388.00
2023-06-15T04:29:27.642Z,1381.00
2023-06-15T04:30:27.660Z,1365.00
2023-06-15T04:31:27.684Z,1376.00
2023-06-15T04:32:27.712Z,1364.00
2023-06-15T04:33:27.718Z,1364.00
2023-06-15T04:34:27.768Z,1386.00
2023-06-15T04:35:27.781Z,1367.00
2023-06-15T04:36:27.801Z,1370.00
2023-06-15T04:37:27.833Z,1367.00
2023-06-15T04:38:27.862Z,1368.00
2023-06-15T04:39:27.887Z,1374.00
2023-06-15T04:40:27.935Z,1369.00
2023-06-15T04:41:27.947Z,1367.00
2023-06-15T04:42:27.981Z,1358.00
2023-06-15T04:43:28.006Z,1354.00
2023-06-15T04:44:28.016Z,1359.00
2023-06-15T04:45:28.066Z,1360.00
2023-06-15T04:46:28.072Z,1354.00
2023-06-15T04:47:28.130Z,1369.00
2023-06-15T04:48:28.146Z,1369.00
2023-06-15T04:49:28.168Z,1356.00
2023-06-15T04:50:28.197Z,1361.00
2023-06-15T04:51:28.228Z,1349.00
2023-06-15T04:52:28.254Z,1338.00
2023-06-15T04:53:28.278Z,1361.00
2023-06-15T04:54:28.306Z,1345.00
2023-06-15T04:55:28.314Z,1341.00
2023-06-15T04:56:28.343Z,1355.00
2023-06-15T04:57:28.380Z,1340.00
2023-06-15T04:58:28.412Z,1354.00
2023-06-15T04:59:28.447Z,1368.00
2023-06-15T05:00:28.468Z,1342.00
2023-06-15T05:01:28.502Z,1375.00
2023-06-15T05:02:28.599Z,1399.00
2023-06-15T05:03:28.595Z,1468.00
2023-06-15T05:04:28.586Z,1511.00
2023-06-15T05:05:28.619Z,1545.00
2023-06-15T05:06:28.647Z,1558.00
2023-06-15T05:07:28.664Z,1579.00
2023-06-15T05:08:28.713Z,1598.00
2023-06-15T05:09:28.760Z,1632.00
2023-06-15T05:10:44.772Z,1643.00
2023-06-15T05:11:29.758Z,1645.00
2023-06-15T05:12:28.740Z,1648.00
2023-06-15T05:13:28.734Z,1661.00
2023-06-15T05:14:28.712Z,1680.00
2023-06-15T05:15:28.695Z,1731.00
2023-06-15T05:16:28.693Z,1736.00
2023-06-15T05:17:28.725Z,1740.00
2023-06-15T05:18:28.676Z,1748.00
2023-06-15T05:19:28.655Z,1754.00
2023-06-15T05:20:28.633Z,1743.00
2023-06-15T05:21:28.620Z,1788.00
2023-06-15T05:22:28.613Z,1753.00
2023-06-15T05:23:28.680Z,1758.00
2023-06-15T05:24:28.768Z,1758.00
2023-06-15T05:25:28.777Z,1718.00
2023-06-15T05:26:30.633Z,1620.00
2023-06-15T05:27:28.758Z,1482.00
2023-06-15T05:28:28.790Z,1355.00
2023-06-15T05:29:28.797Z,1171.00
2023-06-15T05:30:28.904Z,974.00
2023-06-15T05:31:28.886Z,841.00
2023-06-15T05:32:28.863Z,691.00
2023-06-15T05:33:28.880Z,610.00
2023-06-15T05:34:28.871Z,534.00
2023-06-15T05:35:28.889Z,500.00
2023-06-15T05:36:34.520Z,495.00
2023-06-15T05:37:29.899Z,457.00
2023-06-15T05:38:28.910Z,420.00
2023-06-15T05:39:28.936Z,400.00
2023-06-15T05:40:28.935Z,400.00
2023-06-15T05:41:28.938Z,400.00
2023-06-15T05:42:28.967Z,400.00
2023-06-15T05:43:28.955Z,400.00
2023-06-15T05:44:28.978Z,440.00
2023-06-15T05:45:29.018Z,498.00
2023-06-15T05:46:28.982Z,509.00
2023-06-15T05:47:29.065Z,523.00
2023-06-15T05:48:28.987Z,546.00
2023-06-15T05:49:28.991Z,570.00
2023-06-15T05:50:29.001Z,598.00
2023-06-15T05:51:28.980Z,661.00
2023-06-15T05:52:30.252Z,770.00
2023-06-15T05:53:28.954Z,842.00
2023-06-15T05:54:28.954Z,874.00
2023-06-15T05:55:28.933Z,1001.00
2023-06-15T05:56:28.936Z,1111.00
2023-06-15T05:57:28.981Z,1125.00
2023-06-15T05:58:29.021Z,1223.00
2023-06-15T05:59:34.210Z,1290.00
2023-06-15T06:00:30.041Z,1293.00
2023-06-15T06:01:29.030Z,1299.00
2023-06-15T06:02:29.038Z,1333.00
2023-06-15T06:03:28.995Z,1397.00
2023-06-15T06:04:28.986Z,1503.00
2023-06-15T06:05:28.968Z,1538.00
2023-06-15T06:06:28.990Z,1562.00
2023-06-15T06:07:28.931Z,1556.00
2023-06-15T06:08:28.921Z,1561.00
2023-06-15T06:09:28.915Z,1571.00
2023-06-15T06:10:28.942Z,1584.00
2023-06-15T06:11:28.897Z,1577.00
2023-06-15T06:12:28.945Z,1572.00
2023-06-15T06:13:28.988Z,1598.00
2023-06-15T06:14:29.039Z,1594.00
2023-06-15T06:15:29.054Z,1605.00
2023-06-15T06:16:29.075Z,1620.00
2023-06-15T06:17:45.990Z,1613.00
2023-06-15T06:18:30.146Z,1614.00
2023-06-15T06:19:29.064Z,1617.00
2023-06-15T06:20:29.044Z,1640.00
2023-06-15T06:21:29.017Z,1670.00
2023-06-15T06:22:29.004Z,1737.00
2023-06-15T06:23:28.999Z,1761.00
2023-06-15T06:24:29.043Z,1803.00
2023-06-15T06:25:28.999Z,1840.00
2023-06-15T06:26:28.980Z,1863.00
2023-06-15T06:27:28.948Z,1836.00
2023-06-15T06:28:28.951Z,1810.00
2023-06-15T06:29:28.957Z,1865.00
2023-06-15T06:30:28.989Z,1895.00
2023-06-15T06:31:29.027Z,1932.00
2023-06-15T06:32:29.102Z,1958.00
2023-06-15T06:33:29.073Z,1977.00
2023-06-15T06:34:29.113Z,2002.00
2023-06-15T06:35:29.136Z,2022.00
2023-06-15T06:36:29.860Z,2030.00
2023-06-15T06:37:29.178Z,2048.00
2023-06-15T06:38:29.201Z,2044.00
2023-06-15T06:39:29.234Z,2085.00
2023-06-15T06:40:29.277Z,2073.00
2023-06-15T06:41:29.289Z,2092.00
2023-06-15T06:42:29.322Z,2084.00
2023-06-15T06:43:29.360Z,2080.00
2023-06-15T06:44:29.389Z,2110.00
2023-06-15T06:45:30.559Z,2097.00
2023-06-15T06:46:29.438Z,2120.00
2023-06-15T06:47:29.522Z,2117.00
2023-06-15T06:48:29.496Z,2117.00
2023-06-15T06:49:29.529Z,2120.00
2023-06-15T06:50:29.566Z,2146.00
2023-06-15T06:51:29.646Z,2137.00
2023-06-15T06:52:29.609Z,2148.00
2023-06-15T06:53:29.712Z,2158.00
2023-06-15T06:54:29.668Z,2149.00
2023-06-15T06:55:29.687Z,2141.00
2023-06-15T06:56:29.734Z,2169.00
2023-06-15T06:57:29.755Z,2177.00
2023-06-15T06:58:29.783Z,2155.00
2023-06-15T06:59:42.455Z,2182.00
2023-06-15T07:00:30.798Z,2183.00
2023-06-15T07:01:29.780Z,2183.00
2023-06-15T07:02:29.893Z,2178.00
2023-06-15T07:03:29.807Z,2190.00
2023-06-15T07:04:29.725Z,2199.00
2023-06-15T07:05:29.701Z,2171.00
2023-06-15T07:06:29.685Z,2166.00
2023-06-15T07:07:29.667Z,2161.00
2023-06-15T07:08:30.355Z,2182.00
2023-06-15T07:09:29.598Z,2165.00
2023-06-15T07:10:29.577Z,2162.00
2023-06-15T07:11:29.550Z,2163.00
2023-06-15T07:12:29.534Z,2158.00
2023-06-15T07:13:29.512Z,2126.00
2023-06-15T07:14:29.510Z,2143.00
2023-06-15T07:15:29.485Z,2120.00
2023-06-15T07:16:29.482Z,2138.00
2023-06-15T07:17:29.494Z,2143.00
2023-06-15T07:18:30.377Z,2138.00
2023-06-15T07:19:29.445Z,2156.00
2023-06-15T07:20:29.460Z,2155.00
2023-06-15T07:21:29.475Z,2172.00
2023-06-15T07:22:29.479Z,2184.00
2023-06-15T07:23:38.156Z,2191.00
2023-06-15T07:24:31.563Z,2192.00
2023-06-15T07:25:29.486Z,2198.00
2023-06-15T07:26:29.457Z,2217.00
2023-06-15T07:27:29.446Z,2250.00
2023-06-15T07:28:29.435Z,2299.00
2023-06-15T07:29:29.396Z,2299.00
2023-06-15T07:30:29.379Z,2319.00
2023-06-15T07:31:29.883Z,2329.00
2023-06-15T07:32:29.363Z,2328.00
2023-06-15T07:33:29.318Z,2321.00
2023-06-15T07:34:29.932Z,2339.00
2023-06-15T07:35:29.267Z,2337.00
2023-06-15T07:36:29.280Z,2351.00
2023-06-15T07:37:29.366Z,2345.00
2023-06-15T07:38:29.309Z,2347.00
2023-06-15T07:39:29.333Z,2336.00
2023-06-15T07:40:29.352Z,2338.00
2023-06-15T07:41:29.374Z,2324.00
2023-06-15T07:42:29.386Z,2328.00
2023-06-15T07:43:29.416Z,2331.00
2023-06-15T07:44:29.431Z,2319.00
2023-06-15T07:45:29.441Z,2313.00
2023-06-15T07:46:29.454Z,2317.00
2023-06-15T07:47:29.532Z,2300.00
2023-06-15T07:48:29.520Z,2297.00
2023-06-15T07:49:44.268Z,2271.00
2023-06-15T07:50:30.503Z,2271.00
2023-06-15T07:51:41.344Z,2197.00
2023-06-15T07:52:30.457Z,2095.00
2023-06-15T07:53:29.445Z,2073.00
2023-06-15T07:54:29.416Z,2005.00
2023-06-15T07:55:29.973Z,1854.00
2023-06-15T07:56:29.377Z,1756.00
2023-06-15T07:57:29.358Z,1693.00
2023-06-15T07:58:29.336Z,1663.00
2023-06-15T07:59:29.318Z,1638.00
2023-06-15T08:00:29.308Z,1635.00
2023-06-15T08:01:29.283Z,1673.00
2023-06-15T08:02:29.254Z,1740.00
2023-06-15T08:03:29.266Z,1765.00
2023-06-15T08:04:29.207Z,1800.00
2023-06-15T08:05:29.201Z,1808.00
2023-06-15T08:06:29.230Z,1866.00
2023-06-15T08:07:29.246Z,1888.00
2023-06-15T08:08:29.982Z,1940.00
2023-06-15T08:09:29.304Z,1994.00
2023-06-15T08:10:29.304Z,2008.00
2023-06-15T08:11:29.386Z,2054.00
2023-06-15T08:12:29.375Z,2079.00
2023-06-15T08:13:29.426Z,2100.00
2023-06-15T08:14:29.468Z,2105.00
2023-06-15T08:15:29.491Z,2090.00
2023-06-15T08:16:29.543Z,2063.00
2023-06-15T08:17:29.601Z,1952.00
2023-06-15T08:18:29.652Z,1851.00
2023-06-15T08:19:29.685Z,1872.00
2023-06-15T08:20:29.727Z,1872.00
2023-06-15T08:21:29.782Z,1844.00
2023-06-15T08:22:29.846Z,1812.00
2023-06-15T08:23:29.891Z,1826.00
2023-06-15T08:24:30.052Z,1818.00
2023-06-15T08:25:29.989Z,1787.00
2023-06-15T08:26:29.972Z,1741.00
2023-06-15T08:27:30.003Z,1741.00
2023-06-15T08:28:34.036Z,1719.00
2023-06-15T08:29:30.001Z,1719.00
2023-06-15T08:30:29.968Z,1695.00
2023-06-15T08:31:29.951Z,1672.00
2023-06-15T08:32:29.931Z,1703.00
2023-06-15T08:33:29.884Z,1661.00
2023-06-15T08:34:29.865Z,1660.00
2023-06-15T08:35:29.828Z,1693.00
2023-06-15T08:36:29.813Z,1725.00
2023-06-15T08:37:29.843Z,1761.00
2023-06-15T08:38:29.762Z,1815.00
2023-06-15T08:39:29.736Z,1836.00
2023-06-15T08:40:29.715Z,1868.00
2023-06-15T08:41:29.692Z,1881.00
2023-06-15T08:42:29.664Z,1897.00
2023-06-15T08:43:29.787Z,1887.00
2023-06-15T08:44:29.624Z,1913.00
2023-06-15T08:45:29.596Z,1918.00
2023-06-15T08:46:29.598Z,1890.00
2023-06-15T08:47:29.613Z,1858.00
2023-06-15T08:48:29.613Z,1848.00
2023-06-15T08:49:29.622Z,1805.00
2023-06-15T08:50:29.653Z,1804.00
2023-06-15T08:51:30.512Z,1933.00
2023-06-15T08:52:29.827Z,1978.00
2023-06-15T08:53:29.744Z,2000.00
2023-06-15T08:54:29.727Z,1977.00
2023-06-15T08:55:29.751Z,2000.00
2023-06-15T08:56:29.753Z,2018.00
2023-06-15T08:57:29.763Z,2046.00
2023-06-15T08:58:29.759Z,2069.00
2023-06-15T08:59:30.049Z,2064.00
2023-06-15T09:00:29.794Z,2067.00
2023-06-15T09:01:29.790Z,2073.00
2023-06-15T09:02:29.823Z,2056.00
2023-06-15T09:03:29.959Z,2058.00
2023-06-15T09:04:29.892Z,2074.00
2023-06-15T09:05:29.849Z,2057.00
2023-06-15T09:06:29.837Z,2043.00
2023-06-15T09:07:29.837Z,2038.00
2023-06-15T09:08:29.864Z,2041.00
2023-06-15T09:09:29.876Z,2051.00
2023-06-15T09:10:29.880Z,2061.00
2023-06-15T09:11:31.531Z,2075.00
2023-06-15T09:12:29.932Z,2081.00
2023-06-15T09:13:29.828Z,2094.00
2023-06-15T09:14:29.810Z,2106.00
2023-06-15T09:15:29.903Z,2097.00
2023-06-15T09:16:29.757Z,2061.00
2023-06-15T09:17:29.812Z,2056.00
2023-06-15T09:18:29.708Z,2047.00
2023-06-15T09:19:29.661Z,2042.00
2023-06-15T09:20:29.636Z,2022.00
2023-06-15T09:21:29.612Z,2030.00
2023-06-15T09:22:29.631Z,2024.00
2023-06-15T09:23:29.584Z,2057.00
2023-06-15T09:24:29.609Z,2060.00
2023-06-15T09:25:29.536Z,2087.00
2023-06-15T09:26:29.509Z,2071.00
2023-06-15T09:27:29.501Z,2068.00
2023-06-15T09:28:29.490Z,2078.00
2023-06-15T09:29:29.497Z,2095.00
2023-06-15T09:30:29.450Z,2131.00
2023-06-15T09:31:29.527Z,2126.00
2023-06-15T09:32:29.484Z,2137.00
2023-06-15T09:33:29.373Z,2151.00
2023-06-15T09:34:29.351Z,2164.00
2023-06-15T09:35:29.332Z,2170.00
2023-06-15T09:36:29.971Z,2138.00
2023-06-15T09:37:30.042Z,2148.00
2023-06-15T09:38:29.291Z,2112.00
2023-06-15T09:39:30.977Z,2087.00
2023-06-15T09:40:29.243Z,2080.00
2023-06-15T09:41:29.220Z,2072.00
2023-06-15T09:42:29.273Z,2088.00
2023-06-15T09:43:29.172Z,2090.00
2023-06-15T09:44:29.196Z,2101.00
2023-06-15T09:45:29.142Z,2110.00
2023-06-15T09:46:29.129Z,2130.00
2023-06-15T09:47:29.154Z,2128.00
2023-06-15T09:48:29.077Z,2144.00
2023-06-15T09:49:29.054Z,2137.00
2023-06-15T09:50:29.036Z,2144.00
2023-06-15T09:51:31.726Z,2139.00
2023-06-15T09:52:28.992Z,2162.00
2023-06-15T09:53:28.986Z,2143.00
2023-06-15T09:54:28.961Z,2155.00
2023-06-15T09:55:28.933Z,2139.00
2023-06-15T09:56:31.346Z,2122.00
2023-06-15T09:57:29.136Z,2114.00
2023-06-15T09:58:29.140Z,2081.00
2023-06-15T09:59:29.164Z,2077.00
2023-06-15T10:00:29.167Z,2068.00
2023-06-15T10:01:29.174Z,2114.00
2023-06-15T10:02:29.277Z,2122.00
2023-06-15T10:03:30.092Z,2124.00
2023-06-15T10:04:29.392Z,2136.00
2023-06-15T10:05:29.228Z,2170.00
2023-06-15T10:06:29.246Z,2159.00
2023-06-15T10:07:29.252Z,2171.00
2023-06-15T10:08:29.286Z,2172.00
2023-06-15T10:09:29.301Z,2149.00
2023-06-15T10:10:29.377Z,2127.00
2023-06-15T10:11:29.430Z,2105.00
2023-06-15T10:12:29.468Z,2094.00
2023-06-15T10:13:29.511Z,2090.00
2023-06-15T10:14:29.570Z,2008.00
2023-06-15T10:15:32.235Z,2009.00
2023-06-15T10:16:29.535Z,2009.00
2023-06-15T10:17:29.527Z,1996.00
2023-06-15T10:18:29.517Z,1951.00
2023-06-15T10:19:29.486Z,1962.00
2023-06-15T10:20:29.472Z,1971.00
2023-06-15T10:21:29.438Z,1973.00
2023-06-15T10:22:29.423Z,2004.00
2023-06-15T10:23:40.938Z,2006.00
2023-06-15T10:24:30.507Z,2007.00
2023-06-15T10:25:29.360Z,2013.00
2023-06-15T10:26:29.340Z,2030.00
2023-06-15T10:27:30.016Z,2063.00
2023-06-15T10:28:29.309Z,2126.00
2023-06-15T10:29:29.268Z,2144.00
2023-06-15T10:30:29.237Z,2170.00
2023-06-15T10:31:29.205Z,2169.00
2023-06-15T10:32:29.204Z,2199.00
2023-06-15T10:33:29.156Z,2183.00
2023-06-15T10:34:29.123Z,2196.00
2023-06-15T10:35:29.111Z,2182.00
2023-06-15T10:36:29.072Z,2218.00
2023-06-15T10:37:29.042Z,2226.00
2023-06-15T10:38:29.019Z,2215.00
2023-06-15T10:39:28.996Z,2210.00
2023-06-15T10:40:28.968Z,2230.00
2023-06-15T10:41:28.947Z,2204.00
2023-06-15T10:42:28.926Z,2214.00
2023-06-15T10:43:28.944Z,2218.00
2023-06-15T10:44:28.964Z,2199.00
2023-06-15T10:45:29.000Z,2186.00
2023-06-15T10:46:29.030Z,2205.00
2023-06-15T10:47:29.087Z,2212.00
2023-06-15T10:48:29.099Z,2211.00
2023-06-15T10:49:29.078Z,2207.00
2023-06-15T10:50:29.097Z,2204.00
2023-06-15T10:51:29.121Z,2206.00
2023-06-15T10:52:29.229Z,2210.00
2023-06-15T10:53:29.174Z,2190.00
2023-06-15T10:54:29.239Z,2202.00
2023-06-15T10:55:29.236Z,2191.00
2023-06-15T10:56:29.287Z,2208.00
2023-06-15T10:57:29.313Z,2213.00
2023-06-15T10:58:29.344Z,2205.00
2023-06-15T10:59:29.388Z,2186.00
2023-06-15T11:00:29.506Z,2183.00
2023-06-15T11:01:29.461Z,2099.00
2023-06-15T11:02:29.922Z,2088.00
2023-06-15T11:03:29.553Z,2056.00
2023-06-15T11:04:29.663Z,2029.00
2023-06-15T11:05:29.658Z,2034.00
2023-06-15T11:06:29.717Z,2028.00
2023-06-15T11:07:29.776Z,2061.00
2023-06-15T11:08:29.822Z,2048.00
2023-06-15T11:09:29.867Z,2074.00
2023-06-15T11:10:29.935Z,2044.00
2023-06-15T11:11:29.969Z,2064.00
2023-06-15T11:12:30.000Z,2073.00
2023-06-15T11:13:30.060Z,2085.00
2023-06-15T11:14:30.055Z,2109.00
2023-06-15T11:15:30.058Z,2125.00
2023-06-15T11:16:30.066Z,2131.00
2023-06-15T11:17:30.141Z,2140.00
2023-06-15T11:18:30.086Z,2162.00
2023-06-15T11:19:30.112Z,2076.00
2023-06-15T11:20:30.108Z,1972.00
2023-06-15T11:21:30.169Z,1931.00
2023-06-15T11:22:30.146Z,1905.00
2023-06-15T11:23:30.202Z,1880.00
2023-06-15T11:24:30.291Z,1911.00
2023-06-15T11:25:30.149Z,1954.00
2023-06-15T11:26:30.224Z,1919.00
2023-06-15T11:27:30.157Z,1923.00
2023-06-15T11:28:36.679Z,1966.00
2023-06-15T11:29:31.117Z,1968.00
2023-06-15T11:30:31.279Z,1977.00
2023-06-15T11:31:30.669Z,1925.00
2023-06-15T11:32:30.076Z,1869.00
2023-06-15T11:33:30.025Z,1892.00
2023-06-15T11:34:29.977Z,1898.00
2023-06-15T11:35:29.952Z,1904.00
2023-06-15T11:36:29.922Z,1895.00
2023-06-15T11:37:29.897Z,1837.00
2023-06-15T11:38:29.876Z,1841.00
2023-06-15T11:39:29.837Z,1839.00
2023-06-15T11:40:29.805Z,1887.00
2023-06-15T11:41:29.783Z,1926.00
2023-06-15T11:42:29.766Z,1927.00
2023-06-15T11:43:29.737Z,1841.00
2023-06-15T11:44:29.702Z,1876.00
2023-06-15T11:45:29.679Z,1822.00
2023-06-15T11:46:29.655Z,1824.00
2023-06-15T11:47:29.684Z,1835.00
2023-06-15T11:48:29.604Z,1868.00
2023-06-15T11:49:29.584Z,1904.00
2023-06-15T11:50:29.551Z,1941.00
2023-06-15T11:51:29.523Z,1970.00
2023-06-15T11:52:29.484Z,2001.00
2023-06-15T11:53:29.460Z,2029.00
2023-06-15T11:54:44.895Z,2013.00
2023-06-15T11:55:30.394Z,2014.00
2023-06-15T11:56:29.362Z,1982.00
2023-06-15T11:57:29.329Z,1893.00
2023-06-15T11:58:29.306Z,1833.00
2023-06-15T11:59:29.271Z,1778.00
2023-06-15T12:00:29.229Z,1748.00
2023-06-15T12:01:31.295Z,1711.00
2023-06-15T12:02:29.195Z,1633.00
2023-06-15T12:03:29.176Z,1629.00
2023-06-15T12:04:29.244Z,1629.00
2023-06-15T12:05:29.111Z,1648.00
2023-06-15T12:06:29.072Z,1674.00